Time;durP1;ratioP1;P1;durP2;ratioP2;P2;SDS_P1;SDS_P2;PMS_P1;PMS_P2;Temp;Humidity;BMP_temperature;BMP_pressure;BME280_temperature;BME280_humidity;BME280_pressure;Samples;Min_cycle;Max_cycle;Signal;HPM_P1;HPM_P2
2022/07/13 00:03:06;;;;;;;4.90;2.63;;;;;;;;;;6232502;28;20236;-74
2022/07/13 00:06:28;;;;;;;3.00;2.70;;;;;;;;;;6232651;28;20236;-72
2022/07/13 00:09:48;;;;;;;3.40;2.50;;;;;;;;;;6232444;28;20844;-73
2022/07/13 00:13:09;;;;;;;2.63;2.42;;;;;;;;;;6232224;28;20233;-74
2022/07/13 00:16:29;;;;;;;3.17;2.65;;;;;;;;;;6230288;28;20791;-73
2022/07/13 00:19:50;;;;;;;6.45;2.70;;;;;;;;;;6232551;28;20311;-73
2022/07/13 00:23:12;;;;;;;3.13;2.40;;;;;;;;;;6231590;28;20236;-73
2022/07/13 00:26:32;;;;;;;3.10;2.80;;;;;;;;;;6228842;28;20224;-73
2022/07/13 00:29:53;;;;;;;3.55;2.25;;;;;;;;;;6209865;28;20224;-73
2022/07/13 00:33:13;;;;;;;2.38;1.83;;;;;;;;;;6223456;28;20815;-72
2022/07/13 00:36:34;;;;;;;2.13;1.92;;;;;;;;;;6214681;28;20670;-73
2022/07/13 00:39:56;;;;;;;4.32;2.72;;;;;;;;;;6215688;28;20832;-72
2022/07/13 00:43:16;;;;;;;2.22;1.98;;;;;;;;;;6229992;28;20216;-73
2022/07/13 00:46:37;;;;;;;3.05;2.00;;;;;;;;;;6216351;28;20232;-73
2022/07/13 00:49:58;;;;;;;2.70;2.28;;;;;;;;;;6214246;28;20833;-73
2022/07/13 00:53:18;;;;;;;2.83;2.53;;;;;;;;;;6214556;28;20229;-74
2022/07/13 00:56:41;;;;;;;2.58;2.38;;;;;;;;;;6212088;28;20228;-74
2022/07/13 01:00:03;;;;;;;2.60;2.30;;;;;;;;;;6207932;28;20237;-73
2022/07/13 01:03:24;;;;;;;3.08;2.72;;;;;;;;;;6229929;28;20221;-74
2022/07/13 01:06:45;;;;;;;3.58;2.42;;;;;;;;;;6214722;28;20872;-74
2022/07/13 01:10:06;;;;;;;3.50;3.20;;;;;;;;;;6215946;28;20233;-73
2022/07/13 01:13:28;;;;;;;2.38;2.20;;;;;;;;;;6230939;28;20232;-73
2022/07/13 01:16:49;;;;;;;4.28;2.20;;;;;;;;;;6230036;28;20303;-74
2022/07/13 01:20:10;;;;;;;3.58;2.40;;;;;;;;;;6215588;28;20232;-74
2022/07/13 01:23:32;;;;;;;2.20;2.00;;;;;;;;;;6228141;28;20852;-72
2022/07/13 01:26:53;;;;;;;4.10;3.15;;;;;;;;;;6231855;28;20224;-72
2022/07/13 01:30:14;;;;;;;2.95;2.40;;;;;;;;;;6228983;28;20225;-75
2022/07/13 01:33:34;;;;;;;1.83;1.73;;;;;;;;;;6232426;28;20264;-72
2022/07/13 01:36:55;;;;;;;2.38;2.17;;;;;;;;;;6213437;28;20385;-71
2022/07/13 01:40:19;;;;;;;2.30;2.10;;;;;;;;;;6228148;28;20216;-73
2022/07/13 01:43:40;;;;;;;2.35;2.20;;;;;;;;;;6220234;28;20228;-73
2022/07/13 01:47:07;;;;;;;2.00;1.77;;;;;;;;;;6211911;28;20228;-73
2022/07/13 01:50:28;;;;;;;2.90;1.50;;;;;;;;;;6229492;28;20308;-73
2022/07/13 01:53:49;;;;;;;3.00;2.42;;;;;;;;;;6177081;28;20511;-73
2022/07/13 01:57:11;;;;;;;2.10;1.90;;;;;;;;;;6187012;28;20333;-74
2022/07/13 02:00:32;;;;;;;3.80;2.72;;;;;;;;;;6200896;28;20244;-73
2022/07/13 02:03:53;;;;;;;3.72;2.05;;;;;;;;;;6233076;28;20224;-73
2022/07/13 02:07:14;;;;;;;2.30;2.05;;;;;;;;;;6214598;28;20244;-73
2022/07/13 02:10:38;;;;;;;2.00;1.70;;;;;;;;;;6213251;28;20244;-73
2022/07/13 02:14:01;;;;;;;3.90;2.25;;;;;;;;;;6213826;28;21448;-73
2022/07/13 02:17:23;;;;;;;2.05;1.85;;;;;;;;;;6228384;28;20244;-73
2022/07/13 02:20:44;;;;;;;2.63;1.88;;;;;;;;;;6206296;28;20569;-73
2022/07/13 02:24:05;;;;;;;2.10;1.55;;;;;;;;;;6211382;28;20236;-73
2022/07/13 02:27:25;;;;;;;4.03;1.80;;;;;;;;;;6223091;28;20225;-74
2022/07/13 02:30:47;;;;;;;1.90;1.73;;;;;;;;;;6209336;28;20232;-73
2022/07/13 02:34:07;;;;;;;2.35;1.90;;;;;;;;;;6213236;28;20240;-73
2022/07/13 02:37:28;;;;;;;2.35;2.15;;;;;;;;;;6221487;28;20220;-73
2022/07/13 02:40:49;;;;;;;2.40;1.95;;;;;;;;;;6223602;28;20216;-72
2022/07/13 02:44:11;;;;;;;2.35;1.63;;;;;;;;;;6224124;28;20323;-73
2022/07/13 02:47:35;;;;;;;1.77;1.67;;;;;;;;;;6211765;28;20315;-72
2022/07/13 02:50:56;;;;;;;4.00;1.50;;;;;;;;;;6208276;28;20236;-73
2022/07/13 02:54:17;;;;;;;2.70;2.50;;;;;;;;;;6217204;28;20228;-74
2022/07/13 02:57:38;;;;;;;2.78;2.58;;;;;;;;;;6212379;28;20232;-74
2022/07/13 03:01:00;;;;;;;2.65;1.58;;;;;;;;;;6214885;28;20225;-72
2022/07/13 03:04:23;;;;;;;2.00;1.75;;;;;;;;;;6226675;28;20236;-74
2022/07/13 03:07:43;;;;;;;2.80;2.58;;;;;;;;;;6213078;28;20232;-72
2022/07/13 03:11:05;;;;;;;2.08;1.90;;;;;;;;;;6217348;28;20232;-73
2022/07/13 03:14:26;;;;;;;2.83;2.63;;;;;;;;;;6223514;28;20228;-74
2022/07/13 03:17:46;;;;;;;3.17;2.88;;;;;;;;;;6201981;28;20602;-74
2022/07/13 03:21:10;;;;;;;5.63;2.90;;;;;;;;;;6215915;28;20232;-75
2022/07/13 03:24:31;;;;;;;2.83;2.08;;;;;;;;;;6211053;28;20315;-73
2022/07/13 03:27:52;;;;;;;3.03;1.88;;;;;;;;;;6205913;28;20490;-74
2022/07/13 03:31:14;;;;;;;4.47;1.60;;;;;;;;;;6225230;28;20773;-73
2022/07/13 03:34:34;;;;;;;2.22;2.00;;;;;;;;;;6199832;28;20237;-72
2022/07/13 03:37:56;;;;;;;3.50;1.60;;;;;;;;;;6209356;28;20831;-73
2022/07/13 03:41:21;;;;;;;1.80;1.70;;;;;;;;;;6210833;28;20390;-74
2022/07/13 03:44:42;;;;;;;2.35;1.95;;;;;;;;;;6206774;28;20512;-73
2022/07/13 03:48:05;;;;;;;2.20;1.48;;;;;;;;;;6206546;28;20272;-73
2022/07/13 03:51:26;;;;;;;2.22;1.75;;;;;;;;;;6212273;28;20244;-73
2022/07/13 03:54:48;;;;;;;2.35;2.15;;;;;;;;;;6210147;28;20228;-73
2022/07/13 03:58:10;;;;;;;3.47;1.73;;;;;;;;;;6211900;28;20232;-73
2022/07/13 04:01:31;;;;;;;3.00;1.50;;;;;;;;;;6220422;28;20224;-73
2022/07/13 04:04:51;;;;;;;3.70;1.80;;;;;;;;;;6210985;28;20240;-74
2022/07/13 04:08:15;;;;;;;2.60;1.60;;;;;;;;;;6214114;28;20232;-74
2022/07/13 04:11:37;;;;;;;2.75;2.05;;;;;;;;;;6212296;28;20550;-72
2022/07/13 04:14:58;;;;;;;4.15;1.92;;;;;;;;;;6203455;28;20233;-73
2022/07/13 04:18:19;;;;;;;3.20;2.22;;;;;;;;;;6215978;28;20236;-73
2022/07/13 04:21:40;;;;;;;2.67;2.10;;;;;;;;;;6217181;28;20792;-74
2022/07/13 04:25:01;;;;;;;3.35;2.28;;;;;;;;;;6212020;28;20229;-73
2022/07/13 04:28:23;;;;;;;3.65;2.35;;;;;;;;;;6213395;28;20228;-74
2022/07/13 04:31:44;;;;;;;4.50;2.35;;;;;;;;;;6193538;28;20320;-73
2022/07/13 04:35:06;;;;;;;2.95;2.05;;;;;;;;;;6208862;28;20248;-73
2022/07/13 04:38:30;;;;;;;4.53;3.17;;;;;;;;;;6218033;28;20253;-72
2022/07/13 04:41:51;;;;;;;6.32;2.75;;;;;;;;;;6211138;28;20641;-73
2022/07/13 04:45:13;;;;;;;5.22;2.20;;;;;;;;;;6214139;28;20237;-74
2022/07/13 04:48:35;;;;;;;5.45;2.28;;;;;;;;;;6216807;28;20221;-74
2022/07/13 04:51:56;;;;;;;4.70;2.75;;;;;;;;;;6216873;28;20244;-74
2022/07/13 04:55:17;;;;;;;5.00;2.38;;;;;;;;;;6214755;28;20962;-74
2022/07/13 04:58:38;;;;;;;5.57;1.98;;;;;;;;;;6217442;28;20224;-74
2022/07/13 05:02:00;;;;;;;6.43;2.58;;;;;;;;;;6200803;28;20232;-74
2022/07/13 05:05:22;;;;;;;6.78;3.05;;;;;;;;;;6200545;28;20267;-73
2022/07/13 05:08:43;;;;;;;5.45;2.75;;;;;;;;;;6203920;28;20220;-71
2022/07/13 05:12:04;;;;;;;6.35;2.72;;;;;;;;;;6200605;28;20363;-71
2022/07/13 05:15:26;;;;;;;2.80;2.00;;;;;;;;;;6205925;28;20241;-73
2022/07/13 05:18:50;;;;;;;6.30;2.55;;;;;;;;;;6204680;28;20228;-73
2022/07/13 05:22:16;;;;;;;10.48;2.90;;;;;;;;;;6216942;28;20535;-73
2022/07/13 05:25:37;;;;;;;6.88;2.20;;;;;;;;;;6230881;28;20228;-73
2022/07/13 05:28:58;;;;;;;6.30;1.88;;;;;;;;;;6226969;28;20316;-73
2022/07/13 05:32:20;;;;;;;4.30;2.30;;;;;;;;;;6218088;28;20284;-73
2022/07/13 05:35:42;;;;;;;4.25;2.50;;;;;;;;;;6218891;28;20229;-74
2022/07/13 05:39:04;;;;;;;5.50;1.92;;;;;;;;;;6192000;28;20220;-74
2022/07/13 05:42:25;;;;;;;4.18;2.55;;;;;;;;;;6214848;28;20231;-72
2022/07/13 05:45:46;;;;;;;4.63;2.92;;;;;;;;;;6232576;28;20236;-73
2022/07/13 05:49:07;;;;;;;7.22;2.70;;;;;;;;;;6191752;28;20233;-73
2022/07/13 05:52:29;;;;;;;5.57;2.25;;;;;;;;;;6227991;28;21715;-73
2022/07/13 05:55:50;;;;;;;7.65;3.70;;;;;;;;;;6230026;28;20224;-71
2022/07/13 05:59:10;;;;;;;3.95;2.72;;;;;;;;;;6232246;28;20501;-73
2022/07/13 06:02:31;;;;;;;3.50;2.45;;;;;;;;;;6229104;28;20264;-73
2022/07/13 06:05:51;;;;;;;6.13;2.65;;;;;;;;;;6232725;28;20224;-74
2022/07/13 06:09:13;;;;;;;8.70;3.25;;;;;;;;;;6229159;28;20225;-73
2022/07/13 06:12:34;;;;;;;5.85;2.90;;;;;;;;;;6228314;28;20257;-74
2022/07/13 06:15:56;;;;;;;11.18;3.20;;;;;;;;;;6230726;28;20836;-72
2022/07/13 06:19:17;;;;;;;6.03;2.97;;;;;;;;;;6225493;28;20237;-73
2022/07/13 06:22:38;;;;;;;11.02;3.42;;;;;;;;;;6231096;28;21652;-73
2022/07/13 06:26:02;;;;;;;5.75;3.22;;;;;;;;;;6235381;28;20232;-72
2022/07/13 06:29:23;;;;;;;10.35;2.88;;;;;;;;;;6229801;28;20346;-74
2022/07/13 06:32:43;;;;;;;5.00;2.60;;;;;;;;;;6233971;28;20236;-74
2022/07/13 06:36:04;;;;;;;5.25;2.88;;;;;;;;;;6230866;28;20624;-73
2022/07/13 06:39:24;;;;;;;3.78;3.22;;;;;;;;;;6231042;28;20614;-74
2022/07/13 06:42:47;;;;;;;4.07;2.80;;;;;;;;;;6233459;28;20883;-74
2022/07/13 06:46:08;;;;;;;3.83;3.42;;;;;;;;;;6234146;28;20671;-74
2022/07/13 06:49:29;;;;;;;4.00;2.92;;;;;;;;;;6233043;28;20224;-73
2022/07/13 06:52:49;;;;;;;6.32;3.33;;;;;;;;;;6231876;28;20365;-73
2022/07/13 06:56:10;;;;;;;3.63;3.30;;;;;;;;;;6204746;28;20241;-73
2022/07/13 06:59:32;;;;;;;3.60;3.00;;;;;;;;;;6229800;28;20236;-73
2022/07/13 07:02:53;;;;;;;3.80;3.05;;;;;;;;;;6229876;28;20228;-75
2022/07/13 07:06:13;;;;;;;4.80;3.10;;;;;;;;;;6231252;28;20236;-74
2022/07/13 07:09:34;;;;;;;5.32;3.53;;;;;;;;;;6232557;28;20228;-74
2022/07/13 07:12:55;;;;;;;5.53;3.88;;;;;;;;;;6233016;28;20591;-74
2022/07/13 07:16:17;;;;;;;4.38;3.00;;;;;;;;;;6224537;28;20256;-71
2022/07/13 07:19:38;;;;;;;4.03;3.00;;;;;;;;;;6229959;28;20236;-73
2022/07/13 07:22:59;;;;;;;4.63;3.05;;;;;;;;;;6232117;28;20680;-74
2022/07/13 07:26:20;;;;;;;4.93;3.22;;;;;;;;;;6231024;28;20220;-73
2022/07/13 07:29:40;;;;;;;5.57;2.92;;;;;;;;;;6228777;28;20234;-74
2022/07/13 07:33:02;;;;;;;3.78;3.42;;;;;;;;;;6228908;28;20224;-74
2022/07/13 07:36:23;;;;;;;4.78;3.83;;;;;;;;;;6232264;28;20872;-73
2022/07/13 07:39:43;;;;;;;4.80;4.25;;;;;;;;;;6233400;28;20599;-74
2022/07/13 07:43:04;;;;;;;4.93;3.75;;;;;;;;;;6198510;28;20788;-74
2022/07/13 07:46:25;;;;;;;3.78;3.17;;;;;;;;;;6231748;28;20762;-74
2022/07/13 07:49:47;;;;;;;4.10;3.13;;;;;;;;;;6237254;28;20264;-74
2022/07/13 07:53:07;;;;;;;5.55;3.30;;;;;;;;;;6235647;28;20673;-74
2022/07/13 07:56:28;;;;;;;7.07;4.32;;;;;;;;;;6228797;28;20236;-74
2022/07/13 07:59:48;;;;;;;6.57;3.80;;;;;;;;;;6233495;28;20280;-74
2022/07/13 08:03:09;;;;;;;4.85;3.70;;;;;;;;;;6236035;28;20252;-74
2022/07/13 08:06:31;;;;;;;3.28;2.90;;;;;;;;;;6237348;28;20590;-75
2022/07/13 08:09:51;;;;;;;3.40;3.10;;;;;;;;;;6231959;28;20228;-75
2022/07/13 08:13:12;;;;;;;4.95;3.25;;;;;;;;;;6235084;28;20327;-73
2022/07/13 08:16:32;;;;;;;5.65;3.25;;;;;;;;;;6240474;28;20228;-73
2022/07/13 08:19:53;;;;;;;2.88;2.67;;;;;;;;;;6236798;28;20232;-73
2022/07/13 08:26:54;;;;;;;4.07;3.35;;;;;;;;;;6229184;28;20332;-73
2022/07/13 08:30:15;;;;;;;3.25;2.95;;;;;;;;;;6236245;28;20232;-73
2022/07/13 08:41:00;;;;;;;3.30;3.10;;;;;;;;;;6237087;28;20224;-73
2022/07/13 08:44:21;;;;;;;4.20;3.47;;;;;;;;;;6232953;28;20232;-74
2022/07/13 08:47:43;;;;;;;3.17;2.92;;;;;;;;;;6231308;28;20232;-74
2022/07/13 08:51:04;;;;;;;3.38;3.10;;;;;;;;;;6235553;28;20853;-73
2022/07/13 08:54:24;;;;;;;4.47;3.88;;;;;;;;;;6236754;28;20259;-73
2022/07/13 08:57:46;;;;;;;3.95;2.97;;;;;;;;;;6233100;28;20228;-73
2022/07/13 09:01:08;;;;;;;3.47;3.17;;;;;;;;;;6236489;28;20229;-73
2022/07/13 09:04:29;;;;;;;4.00;3.60;;;;;;;;;;6236246;28;20236;-73
2022/07/13 09:08:01;;;;;;;4.38;3.90;;;;;;;;;;6232106;28;20229;-72
2022/07/13 09:11:24;;;;;;;8.98;3.70;;;;;;;;;;6230497;28;20236;-73
2022/07/13 09:14:51;;;;;;;5.50;4.05;;;;;;;;;;6230276;28;20228;-72
2022/07/13 09:18:18;;;;;;;4.07;3.63;;;;;;;;;;6233314;28;20224;-74
2022/07/13 09:21:39;;;;;;;6.95;3.75;;;;;;;;;;6231694;28;20303;-73
2022/07/13 09:25:00;;;;;;;4.97;3.38;;;;;;;;;;6232789;28;20224;-73
2022/07/13 09:28:20;;;;;;;7.13;4.00;;;;;;;;;;6228978;28;20224;-72
2022/07/13 09:31:52;;;;;;;5.22;4.43;;;;;;;;;;6232453;28;20726;-73
2022/07/13 09:35:13;;;;;;;4.57;4.18;;;;;;;;;;6233614;28;20556;-75
2022/07/13 09:38:36;;;;;;;6.63;4.40;;;;;;;;;;6229416;28;20224;-73
2022/07/13 09:41:56;;;;;;;5.00;4.70;;;;;;;;;;6230478;28;20501;-73
2022/07/13 09:48:56;;;;;;;3.92;3.50;;;;;;;;;;6229391;28;20319;-74
2022/07/13 09:52:17;;;;;;;5.93;4.00;;;;;;;;;;6230946;28;20232;-73
2022/07/13 09:55:42;;;;;;;6.78;4.45;;;;;;;;;;6235015;28;20602;-72
2022/07/13 09:59:04;;;;;;;4.57;4.13;;;;;;;;;;6232614;28;20611;-72
2022/07/13 10:02:26;;;;;;;6.10;3.60;;;;;;;;;;6234240;28;20224;-71
2022/07/13 10:05:49;;;;;;;5.40;4.90;;;;;;;;;;6234072;28;21032;-74
2022/07/13 10:09:10;;;;;;;4.93;4.53;;;;;;;;;;6231331;28;20260;-71
2022/07/13 10:12:31;;;;;;;5.18;4.63;;;;;;;;;;6233915;28;20229;-73
2022/07/13 10:15:53;;;;;;;6.03;4.70;;;;;;;;;;6232268;28;20292;-74
2022/07/13 10:19:15;;;;;;;4.97;3.95;;;;;;;;;;6236558;28;20603;-72
2022/07/13 10:22:38;;;;;;;4.97;4.30;;;;;;;;;;6234313;28;20225;-73
2022/07/13 10:25:59;;;;;;;4.70;4.30;;;;;;;;;;6235627;28;20247;-73
2022/07/13 10:29:21;;;;;;;5.35;4.00;;;;;;;;;;6226852;28;20236;-73
2022/07/13 10:32:42;;;;;;;6.13;4.22;;;;;;;;;;6232110;28;20288;-73
2022/07/13 10:36:04;;;;;;;4.53;4.18;;;;;;;;;;6233191;28;20231;-73
2022/07/13 10:39:27;;;;;;;3.75;3.45;;;;;;;;;;6230322;28;20272;-73
2022/07/13 10:43:09;;;;;;;3.38;3.08;;;;;;;;;;6229866;28;20236;-72
2022/07/13 10:46:46;;;;;;;3.67;3.35;;;;;;;;;;6228598;28;20222;-71
2022/07/13 10:50:11;;;;;;;4.72;4.10;;;;;;;;;;6222681;28;20225;-74
2022/07/13 10:53:52;;;;;;;4.68;3.75;;;;;;;;;;6228805;28;20224;-72
2022/07/13 10:57:15;;;;;;;3.65;3.35;;;;;;;;;;6222649;28;20231;-74
2022/07/13 11:00:43;;;;;;;5.20;3.67;;;;;;;;;;6218099;28;20229;-73
2022/07/13 11:04:04;;;;;;;4.25;3.58;;;;;;;;;;6236705;28;20239;-73
2022/07/13 11:07:39;;;;;;;5.32;4.75;;;;;;;;;;6227627;28;20308;-73
2022/07/13 11:11:09;;;;;;;4.85;4.20;;;;;;;;;;6235013;28;20240;-72
2022/07/13 11:14:50;;;;;;;4.15;3.75;;;;;;;;;;6238490;28;20235;-72
2022/07/13 11:18:27;;;;;;;4.50;3.20;;;;;;;;;;6238379;28;20224;-72
2022/07/13 11:22:04;;;;;;;4.40;3.95;;;;;;;;;;6241554;28;20677;-72
2022/07/13 11:25:48;;;;;;;3.78;3.47;;;;;;;;;;6236585;28;20224;-72
2022/07/13 11:29:15;;;;;;;5.50;3.58;;;;;;;;;;6226477;28;20590;-72
2022/07/13 11:32:37;;;;;;;4.18;3.85;;;;;;;;;;6224893;28;20268;-73
2022/07/13 11:35:59;;;;;;;3.80;3.38;;;;;;;;;;6234533;28;20244;-73
2022/07/13 11:39:24;;;;;;;3.53;3.20;;;;;;;;;;6237543;28;20251;-72
2022/07/13 11:42:50;;;;;;;5.15;2.67;;;;;;;;;;6238857;28;20232;-72
2022/07/13 11:46:11;;;;;;;4.50;4.20;;;;;;;;;;6237347;28;20548;-72
2022/07/13 11:49:43;;;;;;;3.47;3.17;;;;;;;;;;6236613;28;20500;-73
2022/07/13 11:53:04;;;;;;;3.85;3.55;;;;;;;;;;6237450;28;20327;-72
2022/07/13 11:56:25;;;;;;;6.22;2.72;;;;;;;;;;6238534;28;20221;-72
2022/07/13 11:59:45;;;;;;;6.53;4.03;;;;;;;;;;6236317;28;20532;-72
2022/07/13 12:03:06;;;;;;;4.78;3.75;;;;;;;;;;6237460;28;20221;-72
2022/07/13 12:06:28;;;;;;;3.88;3.20;;;;;;;;;;6235342;28;20681;-73
2022/07/13 12:09:50;;;;;;;3.80;3.50;;;;;;;;;;6232722;28;20232;-73
2022/07/13 12:13:11;;;;;;;4.85;2.95;;;;;;;;;;6236531;28;20323;-72
2022/07/13 12:16:32;;;;;;;3.47;3.15;;;;;;;;;;6233447;28;20229;-72
2022/07/13 12:19:53;;;;;;;3.47;3.17;;;;;;;;;;6219550;28;20280;-72
2022/07/13 12:23:15;;;;;;;4.82;3.85;;;;;;;;;;6233781;28;20934;-71
2022/07/13 12:26:36;;;;;;;4.38;3.17;;;;;;;;;;6235902;28;20232;-72
2022/07/13 12:30:06;;;;;;;4.85;3.35;;;;;;;;;;6236523;28;20237;-71
2022/07/13 12:33:26;;;;;;;4.05;3.65;;;;;;;;;;6231687;28;20613;-73
2022/07/13 12:36:47;;;;;;;4.70;3.38;;;;;;;;;;6233675;28;20228;-73
2022/07/13 12:40:30;;;;;;;4.97;3.20;;;;;;;;;;6207248;28;20224;-72
2022/07/13 12:43:55;;;;;;;3.92;3.08;;;;;;;;;;6237701;28;20323;-73
2022/07/13 12:47:22;;;;;;;6.18;3.33;;;;;;;;;;6234365;28;20579;-72
2022/07/13 12:50:54;;;;;;;5.78;3.78;;;;;;;;;;6221437;28;20261;-72
2022/07/13 12:54:15;;;;;;;3.70;3.40;;;;;;;;;;6239423;28;20591;-72
2022/07/13 12:57:37;;;;;;;4.43;3.35;;;;;;;;;;6235160;28;20228;-73
2022/07/13 13:00:57;;;;;;;3.80;3.47;;;;;;;;;;6238117;28;20228;-72
2022/07/13 13:04:18;;;;;;;3.58;3.10;;;;;;;;;;6239888;28;20254;-73
2022/07/13 13:07:39;;;;;;;3.55;3.25;;;;;;;;;;6234491;28;20225;-73
2022/07/13 13:10:59;;;;;;;4.60;3.30;;;;;;;;;;6233255;28;20259;-73
2022/07/13 13:14:22;;;;;;;2.78;2.50;;;;;;;;;;6204669;28;20237;-71
2022/07/13 13:17:42;;;;;;;2.90;2.70;;;;;;;;;;6237511;28;20479;-71
2022/07/13 13:21:03;;;;;;;3.95;2.80;;;;;;;;;;6222277;28;20650;-70
2022/07/13 13:24:24;;;;;;;3.72;2.70;;;;;;;;;;6210469;28;20511;-72
2022/07/13 13:27:44;;;;;;;2.90;2.42;;;;;;;;;;6213913;28;20244;-70
2022/07/13 13:31:05;;;;;;;3.30;2.47;;;;;;;;;;6232074;28;20503;-73
2022/07/13 13:34:26;;;;;;;2.88;2.67;;;;;;;;;;6234347;28;20232;-72
2022/07/13 13:37:48;;;;;;;3.53;2.67;;;;;;;;;;6234628;28;20559;-71
2022/07/13 13:41:08;;;;;;;2.95;2.55;;;;;;;;;;6231669;28;20508;-77
2022/07/13 13:44:29;;;;;;;2.60;2.20;;;;;;;;;;6219442;28;20270;-72
2022/07/13 13:47:51;;;;;;;2.67;2.25;;;;;;;;;;6219792;28;20296;-71
2022/07/13 13:51:11;;;;;;;4.18;2.17;;;;;;;;;;6232826;28;20469;-72
2022/07/13 13:54:32;;;;;;;2.05;1.88;;;;;;;;;;6234841;28;20225;-73
2022/07/13 13:57:52;;;;;;;4.10;2.55;;;;;;;;;;6217209;28;20228;-72
2022/07/13 14:01:13;;;;;;;2.03;1.77;;;;;;;;;;6230929;28;20236;-73
2022/07/13 14:04:35;;;;;;;2.20;1.23;;;;;;;;;;6221592;28;20225;-72
2022/07/13 14:07:57;;;;;;;2.10;1.95;;;;;;;;;;6225519;28;20232;-71
2022/07/13 14:11:18;;;;;;;1.65;1.50;;;;;;;;;;6227545;28;20240;-72
2022/07/13 14:14:38;;;;;;;5.43;1.88;;;;;;;;;;6232984;28;20328;-71
2022/07/13 14:18:00;;;;;;;3.75;2.22;;;;;;;;;;6232701;28;20229;-72
2022/07/13 14:21:22;;;;;;;2.05;1.90;;;;;;;;;;6232422;28;20244;-73
2022/07/13 14:24:42;;;;;;;1.80;1.70;;;;;;;;;;6233026;28;20229;-72
2022/07/13 14:28:03;;;;;;;1.58;1.48;;;;;;;;;;6207392;28;20733;-72
2022/07/13 14:31:24;;;;;;;1.67;1.58;;;;;;;;;;6226132;28;20237;-71
2022/07/13 14:34:45;;;;;;;4.97;1.85;;;;;;;;;;6230828;28;20225;-71
2022/07/13 14:38:07;;;;;;;2.42;1.10;;;;;;;;;;6225450;28;20232;-71
2022/07/13 14:41:28;;;;;;;4.20;2.05;;;;;;;;;;6229770;28;20244;-71
2022/07/13 14:44:48;;;;;;;2.67;1.80;;;;;;;;;;6229034;28;20220;-70
2022/07/13 14:52:01;;;;;;;3.72;1.92;;;;;;;;;;6208029;28;20232;-72
2022/07/13 14:55:23;;;;;;;2.75;1.63;;;;;;;;;;6194132;28;20242;-72
2022/07/13 14:58:43;;;;;;;3.47;1.80;;;;;;;;;;6190760;28;20233;-72
2022/07/13 15:02:04;;;;;;;5.82;1.83;;;;;;;;;;6190645;28;20252;-71
2022/07/13 15:05:27;;;;;;;3.90;2.30;;;;;;;;;;6201665;28;21064;-71
2022/07/13 15:08:48;;;;;;;2.88;2.40;;;;;;;;;;6180108;28;20233;-70
2022/07/13 15:12:10;;;;;;;3.25;2.65;;;;;;;;;;6198674;28;20257;-71
2022/07/13 15:15:32;;;;;;;3.92;2.15;;;;;;;;;;6205849;28;20636;-73
2022/07/13 15:18:52;;;;;;;2.58;2.38;;;;;;;;;;6196758;28;20225;-71
2022/07/13 15:22:13;;;;;;;4.13;2.78;;;;;;;;;;6193492;28;20229;-72
2022/07/13 15:25:34;;;;;;;2.40;1.58;;;;;;;;;;6204043;28;20583;-71
2022/07/13 15:28:56;;;;;;;2.28;1.83;;;;;;;;;;6186320;28;20233;-72
2022/07/13 15:32:16;;;;;;;2.08;1.90;;;;;;;;;;6204299;28;20226;-73
2022/07/13 15:35:37;;;;;;;4.80;1.77;;;;;;;;;;6203137;28;20241;-72
2022/07/13 15:38:58;;;;;;;4.10;2.58;;;;;;;;;;6193213;28;20492;-73
2022/07/13 15:42:18;;;;;;;2.42;1.98;;;;;;;;;;6191410;28;20221;-72
2022/07/13 15:45:40;;;;;;;1.92;1.83;;;;;;;;;;6202264;28;20237;-72
2022/07/13 15:49:03;;;;;;;4.53;2.20;;;;;;;;;;6201855;28;20225;-72
2022/07/13 15:52:24;;;;;;;2.55;1.73;;;;;;;;;;6199483;28;20233;-72
2022/07/13 15:55:45;;;;;;;4.50;2.65;;;;;;;;;;6192549;28;20229;-73
2022/07/13 15:59:05;;;;;;;2.08;1.88;;;;;;;;;;6199319;28;20233;-72
2022/07/13 16:02:27;;;;;;;2.35;2.15;;;;;;;;;;6199808;28;20225;-72
2022/07/13 16:05:48;;;;;;;2.60;2.40;;;;;;;;;;6196221;28;20320;-72
2022/07/13 16:09:09;;;;;;;3.65;2.33;;;;;;;;;;6205470;28;20270;-72
2022/07/13 16:12:29;;;;;;;2.67;1.85;;;;;;;;;;6208371;28;20225;-72
2022/07/13 16:15:50;;;;;;;3.30;2.22;;;;;;;;;;6199200;28;20248;-71
2022/07/13 16:19:18;;;;;;;3.13;2.28;;;;;;;;;;6201244;28;20225;-71
2022/07/13 16:22:39;;;;;;;3.53;2.80;;;;;;;;;;6190889;28;20228;-72
2022/07/13 16:25:59;;;;;;;2.22;1.90;;;;;;;;;;6193015;28;20225;-72
2022/07/13 16:29:20;;;;;;;3.58;2.08;;;;;;;;;;6203338;28;20233;-73
2022/07/13 16:32:41;;;;;;;3.13;1.83;;;;;;;;;;6208304;28;20499;-73
2022/07/13 16:36:03;;;;;;;2.55;2.00;;;;;;;;;;6205017;28;20233;-72
2022/07/13 16:39:24;;;;;;;2.40;2.00;;;;;;;;;;6205419;28;20237;-72
2022/07/13 16:42:44;;;;;;;2.00;1.80;;;;;;;;;;6207344;28;20626;-72
2022/07/13 16:46:05;;;;;;;3.42;2.10;;;;;;;;;;6210054;28;20229;-72
2022/07/13 16:49:26;;;;;;;2.63;2.17;;;;;;;;;;6210718;28;20571;-72
2022/07/13 16:52:47;;;;;;;4.93;1.92;;;;;;;;;;6210742;28;20339;-72
2022/07/13 16:56:08;;;;;;;1.85;1.52;;;;;;;;;;6202701;28;20583;-71
2022/07/13 16:59:29;;;;;;;3.13;1.80;;;;;;;;;;6211549;28;20532;-71
2022/07/13 17:02:49;;;;;;;2.58;1.48;;;;;;;;;;6208384;28;20225;-73
2022/07/13 17:06:10;;;;;;;3.47;2.03;;;;;;;;;;6211186;28;20229;-72
2022/07/13 17:09:32;;;;;;;3.58;2.33;;;;;;;;;;6211190;28;20221;-71
2022/07/13 17:12:53;;;;;;;1.70;1.60;;;;;;;;;;6199369;28;20237;-72
2022/07/13 17:16:15;;;;;;;4.15;1.70;;;;;;;;;;6208433;28;20229;-72
2022/07/13 17:19:35;;;;;;;2.70;1.90;;;;;;;;;;6208879;28;20722;-72
2022/07/13 17:22:56;;;;;;;2.80;2.00;;;;;;;;;;6207946;28;20229;-72
2022/07/13 17:26:18;;;;;;;2.33;2.03;;;;;;;;;;6210939;28;20241;-72
2022/07/13 17:29:39;;;;;;;3.47;2.25;;;;;;;;;;6207116;28;20224;-71
2022/07/13 17:33:02;;;;;;;1.90;1.73;;;;;;;;;;6203944;28;20267;-72
2022/07/13 17:36:23;;;;;;;4.15;2.03;;;;;;;;;;6207081;28;20264;-72
2022/07/13 17:39:44;;;;;;;2.65;2.00;;;;;;;;;;6209291;28;20233;-72
2022/07/13 17:43:06;;;;;;;5.18;1.83;;;;;;;;;;6205051;28;20229;-71
2022/07/13 17:46:26;;;;;;;1.95;1.70;;;;;;;;;;6207178;28;20236;-76
2022/07/13 17:49:47;;;;;;;2.55;1.77;;;;;;;;;;6208900;28;20230;-72
2022/07/13 17:53:08;;;;;;;2.05;1.52;;;;;;;;;;6206918;28;20324;-72
2022/07/13 17:56:28;;;;;;;3.17;1.73;;;;;;;;;;6209905;28;20653;-72
2022/07/13 17:59:50;;;;;;;2.95;2.17;;;;;;;;;;6208295;28;20229;-73
2022/07/13 18:03:11;;;;;;;4.05;1.83;;;;;;;;;;6209487;28;20603;-73
2022/07/13 18:06:32;;;;;;;4.18;2.50;;;;;;;;;;6206268;28;21041;-73
2022/07/13 18:09:52;;;;;;;5.25;2.53;;;;;;;;;;6207855;28;20237;-72
2022/07/13 18:13:13;;;;;;;4.50;2.40;;;;;;;;;;6204865;28;20225;-72
2022/07/13 18:16:35;;;;;;;6.72;2.25;;;;;;;;;;6204270;28;20337;-72
2022/07/13 18:19:55;;;;;;;2.65;1.45;;;;;;;;;;6207265;28;20225;-72
2022/07/13 18:26:54;;;;;;;6.85;2.20;;;;;;;;;;6206904;28;20253;-72
2022/07/13 18:30:15;;;;;;;7.28;3.20;;;;;;;;;;6208356;28;20237;-73
2022/07/13 18:33:38;;;;;;;2.63;1.75;;;;;;;;;;6209788;28;20541;-72
2022/07/13 18:36:59;;;;;;;8.27;3.08;;;;;;;;;;6208849;28;20233;-72
2022/07/13 18:40:20;;;;;;;4.80;1.88;;;;;;;;;;6208941;28;20333;-73
2022/07/13 18:43:41;;;;;;;5.03;2.00;;;;;;;;;;6203039;28;20233;-72
2022/07/13 18:47:01;;;;;;;8.20;2.60;;;;;;;;;;6207828;28;20237;-73
2022/07/13 18:50:23;;;;;;;7.28;2.63;;;;;;;;;;6209497;28;20332;-73
2022/07/13 18:53:44;;;;;;;9.20;2.97;;;;;;;;;;6207045;28;20619;-72
2022/07/13 18:57:05;;;;;;;4.82;3.15;;;;;;;;;;6206514;28;20320;-72
2022/07/13 19:00:25;;;;;;;7.90;2.30;;;;;;;;;;6207816;28;20232;-73
2022/07/13 19:03:46;;;;;;;7.07;2.95;;;;;;;;;;6205451;28;20226;-72
2022/07/13 19:07:08;;;;;;;8.88;1.90;;;;;;;;;;6208270;28;20508;-73
2022/07/13 19:10:30;;;;;;;6.53;3.08;;;;;;;;;;6205909;28;20637;-72
2022/07/13 19:13:50;;;;;;;6.50;3.78;;;;;;;;;;6202754;28;20233;-71
2022/07/13 19:17:11;;;;;;;9.70;3.38;;;;;;;;;;6202801;28;20388;-71
2022/07/13 19:20:32;;;;;;;8.15;3.10;;;;;;;;;;6208374;28;20332;-73
2022/07/13 19:23:55;;;;;;;5.70;2.92;;;;;;;;;;6209884;28;20319;-72
2022/07/13 19:27:14;;;;;;;8.93;3.28;;;;;;;;;;6209151;28;20225;-73
2022/07/13 19:30:35;;;;;;;6.22;2.70;;;;;;;;;;6207861;28;20229;-72
2022/07/13 19:33:56;;;;;;;6.82;3.28;;;;;;;;;;6210594;28;20867;-72
2022/07/13 19:37:16;;;;;;;5.22;2.47;;;;;;;;;;6210512;28;20237;-72
2022/07/13 19:40:38;;;;;;;6.00;3.05;;;;;;;;;;6206457;28;20368;-72
2022/07/13 19:43:59;;;;;;;9.57;3.55;;;;;;;;;;6214345;28;20240;-74
2022/07/13 19:47:20;;;;;;;7.90;2.90;;;;;;;;;;6207801;28;20253;-73
2022/07/13 19:50:41;;;;;;;9.43;2.92;;;;;;;;;;6212344;28;20228;-73
2022/07/13 19:54:03;;;;;;;9.20;3.17;;;;;;;;;;6214196;28;20561;-73
2022/07/13 19:57:25;;;;;;;11.45;3.20;;;;;;;;;;6206755;28;20237;-74
2022/07/13 20:00:47;;;;;;;8.68;2.78;;;;;;;;;;6195757;28;20439;-71
2022/07/13 20:04:08;;;;;;;8.93;3.45;;;;;;;;;;6198494;28;20602;-74
2022/07/13 20:07:29;;;;;;;4.95;2.15;;;;;;;;;;6194278;28;20252;-72
2022/07/13 20:10:49;;;;;;;15.73;4.35;;;;;;;;;;6203906;28;20233;-71
2022/07/13 20:14:11;;;;;;;6.78;2.30;;;;;;;;;;6213542;28;20232;-71
2022/07/13 20:17:32;;;;;;;8.75;2.97;;;;;;;;;;6208060;28;20229;-71
2022/07/13 20:20:52;;;;;;;9.25;3.13;;;;;;;;;;6212166;28;20237;-71
2022/07/13 20:24:13;;;;;;;11.68;3.63;;;;;;;;;;6208722;28;20240;-71
2022/07/13 20:27:34;;;;;;;6.22;2.90;;;;;;;;;;6212060;28;20233;-72
2022/07/13 20:30:56;;;;;;;9.63;3.08;;;;;;;;;;6209044;28;20237;-74
2022/07/13 20:34:18;;;;;;;14.13;3.92;;;;;;;;;;6213184;28;20232;-72